Time;durP1;ratioP1;P1;durP2;ratioP2;P2;SDS_P1;SDS_P2;PMS_P1;PMS_P2;Temp;Humidity;BMP_temperature;BMP_pressure;BME280_temperature;BME280_humidity;BME280_pressure;Samples;Min_cycle;Max_cycle;Signal;HPM_P1;HPM_P2
2022/03/07 00:01:37;;;;;;;25.75;23.70;;;0.50;99.90;;;;;;5018161;28;20045;-73
2022/03/07 00:04:05;;;;;;;26.27;24.17;;;0.50;99.90;;;;;;5002488;28;20885;-73
2022/03/07 00:06:32;;;;;;;26.13;24.13;;;0.50;99.90;;;;;;5017116;28;20076;-73
2022/03/07 00:08:58;;;;;;;26.30;24.17;;;0.50;99.90;;;;;;5017787;28;20514;-75
2022/03/07 00:11:25;;;;;;;25.55;23.55;;;0.40;99.90;;;;;;5006117;28;20045;-73
2022/03/07 00:13:52;;;;;;;26.08;24.17;;;0.30;99.90;;;;;;5002266;28;20061;-76
2022/03/07 00:16:19;;;;;;;25.70;23.50;;;0.30;99.90;;;;;;5000151;28;20153;-75
2022/03/07 00:18:46;;;;;;;26.38;24.35;;;0.30;99.90;;;;;;4998951;28;20099;-77
2022/03/07 00:21:13;;;;;;;27.02;24.80;;;0.40;99.90;;;;;;4999507;28;20103;-76
2022/03/07 00:23:40;;;;;;;26.45;24.20;;;0.40;99.90;;;;;;5002758;28;20581;-73
2022/03/07 00:26:07;;;;;;;25.67;23.52;;;0.40;99.90;;;;;;4997633;28;20299;-75
2022/03/07 00:28:34;;;;;;;27.10;24.90;;;0.50;99.90;;;;;;5015109;28;20057;-74
2022/03/07 00:31:05;;;;;;;27.58;25.45;;;0.50;99.90;;;;;;4979468;28;20049;-73
2022/03/07 00:33:32;;;;;;;27.73;25.63;;;0.50;99.90;;;;;;5009037;28;20060;-74
2022/03/07 00:35:59;;;;;;;31.00;28.05;;;0.60;99.90;;;;;;4980906;28;20089;-75
2022/03/07 00:38:27;;;;;;;29.38;26.63;;;0.60;99.90;;;;;;4995229;28;20053;-74
2022/03/07 00:40:53;;;;;;;27.95;25.65;;;0.50;99.90;;;;;;4993949;28;20045;-72
2022/03/07 00:43:21;;;;;;;28.33;26.13;;;0.50;99.90;;;;;;4991537;28;20415;-71
2022/03/07 00:45:48;;;;;;;28.23;25.83;;;0.50;99.90;;;;;;4991588;28;20062;-74
2022/03/07 00:48:18;;;;;;;28.10;25.52;;;0.60;99.90;;;;;;5022528;28;20045;-72
2022/03/07 00:50:46;;;;;;;25.83;23.88;;;0.60;99.90;;;;;;4980174;28;20072;-72
2022/03/07 00:53:16;;;;;;;26.65;24.55;;;0.50;99.90;;;;;;4978443;28;20038;-75
2022/03/07 00:55:44;;;;;;;27.33;24.90;;;0.30;99.90;;;;;;4990951;28;20037;-74
2022/03/07 00:58:12;;;;;;;27.05;24.73;;;0.30;99.90;;;;;;4994232;28;20160;-74
2022/03/07 01:00:40;;;;;;;28.38;25.98;;;0.30;99.90;;;;;;5011162;28;20037;-73
2022/03/07 01:03:09;;;;;;;26.02;24.23;;;0.40;99.90;;;;;;4994570;28;20037;-74
2022/03/07 01:05:36;;;;;;;28.05;25.88;;;0.40;99.90;;;;;;4994514;28;20045;-72
2022/03/07 01:08:03;;;;;;;28.17;25.75;;;0.30;99.90;;;;;;5007508;23;20056;-75
2022/03/07 01:10:30;;;;;;;27.55;25.25;;;0.20;99.90;;;;;;4976556;28;20053;-76
2022/03/07 01:12:57;;;;;;;26.60;24.70;;;0.20;99.90;;;;;;4988748;28;20304;-76
2022/03/07 01:15:24;;;;;;;27.27;25.27;;;0.20;99.90;;;;;;4989666;28;20061;-76
2022/03/07 01:17:53;;;;;;;27.95;25.75;;;0.20;99.90;;;;;;5007763;28;20103;-77
2022/03/07 01:20:20;;;;;;;26.85;24.85;;;0.30;99.90;;;;;;5017373;28;20302;-77
2022/03/07 01:22:48;;;;;;;26.95;24.65;;;0.30;99.90;;;;;;4999812;28;20072;-75
2022/03/07 01:25:14;;;;;;;27.17;25.10;;;0.40;99.90;;;;;;4996615;28;20053;-76
2022/03/07 01:27:41;;;;;;;26.40;24.60;;;0.20;99.90;;;;;;4987076;28;20117;-76
2022/03/07 01:30:09;;;;;;;28.42;25.92;;;0.40;99.90;;;;;;4988134;28;20045;-76
2022/03/07 01:32:35;;;;;;;28.92;25.92;;;0.50;99.90;;;;;;5010685;28;20069;-75
2022/03/07 01:35:04;;;;;;;27.63;25.27;;;0.40;99.90;;;;;;5002947;28;20145;-76
2022/03/07 01:37:32;;;;;;;28.40;26.20;;;0.20;99.90;;;;;;4984999;28;20162;-76
2022/03/07 01:39:59;;;;;;;28.67;26.33;;;0.20;99.90;;;;;;4984652;28;20749;-77
2022/03/07 01:42:26;;;;;;;28.42;26.20;;;0.10;99.90;;;;;;4991520;28;20046;-77
2022/03/07 01:44:53;;;;;;;29.00;26.65;;;0.30;99.90;;;;;;4981622;28;20053;-76
2022/03/07 01:47:20;;;;;;;26.80;24.80;;;0.30;99.90;;;;;;4990410;28;20580;-76
2022/03/07 01:49:47;;;;;;;27.55;25.30;;;0.50;99.90;;;;;;4981940;28;20098;-76
2022/03/07 01:52:18;;;;;;;27.90;25.70;;;0.40;99.90;;;;;;5015662;28;20050;-76
2022/03/07 01:54:46;;;;;;;28.70;26.30;;;0.30;99.90;;;;;;5000097;28;20061;-77
2022/03/07 01:57:15;;;;;;;28.20;26.00;;;0.20;99.90;;;;;;5016363;28;20164;-76
2022/03/07 01:59:41;;;;;;;27.98;25.48;;;0.30;99.90;;;;;;5000438;28;20136;-76
2022/03/07 02:02:08;;;;;;;27.98;25.60;;;0.30;99.90;;;;;;5006873;28;20065;-77
2022/03/07 02:04:39;;;;;;;28.77;26.23;;;0.40;99.90;;;;;;5002632;28;20053;-77
2022/03/07 02:07:09;;;;;;;28.55;26.20;;;0.40;99.90;;;;;;4981135;28;20086;-76
2022/03/07 02:09:35;;;;;;;28.35;26.15;;;0.30;99.90;;;;;;4986316;28;20124;-76
2022/03/07 02:12:03;;;;;;;27.90;25.90;;;0.40;99.90;;;;;;5002914;28;20050;-76
2022/03/07 02:14:30;;;;;;;27.73;25.73;;;0.50;99.90;;;;;;5021704;28;20107;-77
2022/03/07 02:16:58;;;;;;;28.90;26.00;;;0.40;99.90;;;;;;4984291;28;20421;-76
2022/03/07 02:19:25;;;;;;;27.15;25.05;;;0.50;99.90;;;;;;4968689;28;20053;-76
2022/03/07 02:22:00;;;;;;;26.33;24.25;;;0.40;99.90;;;;;;4998191;28;20438;-75
2022/03/07 02:24:32;;;;;;;27.17;25.00;;;0.50;99.90;;;;;;5002013;28;20058;-76
2022/03/07 02:27:07;;;;;;;27.58;25.33;;;0.40;99.90;;;;;;5020531;28;20053;-76
2022/03/07 02:29:39;;;;;;;26.98;24.77;;;0.30;99.90;;;;;;4984362;28;20056;-76
2022/03/07 02:32:09;;;;;;;27.33;25.23;;;0.30;99.90;;;;;;5001491;28;20045;-76
2022/03/07 02:34:43;;;;;;;26.60;24.30;;;0.20;99.90;;;;;;5021970;28;20048;-76
2022/03/07 02:37:11;;;;;;;26.33;24.30;;;0.10;99.90;;;;;;5032414;28;20072;-77
2022/03/07 02:39:46;;;;;;;26.10;24.02;;;0.20;99.90;;;;;;5030906;28;20128;-75
2022/03/07 02:42:33;;;;;;;27.30;25.20;;;0.20;99.90;;;;;;5018623;28;20125;-76
2022/03/07 02:45:00;;;;;;;27.33;25.02;;;0.30;99.90;;;;;;5015494;28;20129;-77
2022/03/07 02:47:27;;;;;;;26.98;24.88;;;0.30;99.90;;;;;;5007210;28;20061;-76
2022/03/07 02:49:54;;;;;;;27.13;25.05;;;0.50;99.90;;;;;;5007569;28;20656;-76
2022/03/07 02:52:21;;;;;;;27.05;24.98;;;0.50;99.90;;;;;;5006597;28;20694;-75
2022/03/07 02:54:47;;;;;;;27.70;25.33;;;0.50;99.90;;;;;;5030927;28;20091;-76
2022/03/07 02:57:14;;;;;;;27.55;25.27;;;0.40;99.90;;;;;;5026879;28;20045;-75
2022/03/07 02:59:41;;;;;;;28.02;25.58;;;0.30;99.90;;;;;;5024916;28;20627;-75
2022/03/07 03:02:07;;;;;;;29.17;26.15;;;0.30;99.90;;;;;;5022455;28;20525;-75
2022/03/07 03:04:35;;;;;;;27.70;25.45;;;0.20;99.90;;;;;;5009358;28;20060;-76
2022/03/07 03:07:01;;;;;;;27.58;25.48;;;0.20;99.90;;;;;;5045526;28;20257;-75
2022/03/07 03:09:28;;;;;;;26.75;24.73;;;0.30;99.90;;;;;;5044179;28;20052;-76
2022/03/07 03:11:55;;;;;;;27.23;25.20;;;0.30;99.90;;;;;;5026255;28;20049;-76
2022/03/07 03:14:22;;;;;;;27.45;25.23;;;0.20;99.90;;;;;;5045669;28;20528;-76
2022/03/07 03:16:50;;;;;;;28.75;26.38;;;0.10;99.90;;;;;;5016846;28;20125;-77
2022/03/07 03:19:17;;;;;;;28.30;25.77;;;0.10;99.90;;;;;;5015620;28;20053;-77
2022/03/07 03:21:44;;;;;;;29.05;26.63;;;0.00;99.90;;;;;;4999926;28;20048;-77
2022/03/07 03:24:12;;;;;;;28.27;25.88;;;0.10;99.90;;;;;;5015884;28;20061;-76
2022/03/07 03:26:38;;;;;;;29.10;26.75;;;0.20;99.90;;;;;;5007837;28;20049;-77
2022/03/07 03:29:05;;;;;;;30.48;27.30;;;0.20;99.90;;;;;;5015726;28;20698;-77
2022/03/07 03:31:32;;;;;;;29.05;26.65;;;0.20;99.90;;;;;;5020281;28;20153;-76
2022/03/07 03:33:59;;;;;;;30.70;28.10;;;0.10;99.90;;;;;;5011280;28;20048;-76
2022/03/07 03:36:25;;;;;;;29.02;26.73;;;0.20;99.90;;;;;;5012571;28;20483;-76
2022/03/07 03:38:52;;;;;;;29.55;27.05;;;0.20;99.90;;;;;;5052228;28;20045;-76
2022/03/07 03:41:19;;;;;;;29.77;27.05;;;0.20;99.90;;;;;;5020300;28;20071;-76
2022/03/07 03:43:45;;;;;;;29.52;26.88;;;0.20;99.90;;;;;;5011653;28;20046;-76
2022/03/07 03:46:12;;;;;;;30.15;27.48;;;0.20;99.90;;;;;;5032185;28;20754;-76
2022/03/07 03:48:39;;;;;;;29.58;26.88;;;0.20;99.90;;;;;;4995923;28;20053;-76
2022/03/07 03:51:05;;;;;;;28.88;26.45;;;0.10;99.90;;;;;;5017561;28;20049;-76
2022/03/07 03:53:32;;;;;;;28.00;25.67;;;0.10;99.90;;;;;;5030575;28;20104;-76
2022/03/07 03:56:02;;;;;;;27.52;25.40;;;0.10;99.90;;;;;;5030620;28;20053;-76
2022/03/07 03:58:29;;;;;;;28.45;26.00;;;0.20;99.90;;;;;;5034140;28;20064;-76
2022/03/07 04:00:56;;;;;;;28.75;26.35;;;0.00;99.90;;;;;;5021669;28;20061;-76
2022/03/07 04:03:23;;;;;;;27.55;25.40;;;0.00;99.90;;;;;;5013852;28;20305;-76
2022/03/07 04:05:50;;;;;;;27.85;25.65;;;0.00;99.90;;;;;;5014291;28;20080;-77
2022/03/07 04:08:17;;;;;;;29.50;27.00;;;0.10;99.90;;;;;;5030136;28;20060;-76
2022/03/07 04:10:46;;;;;;;28.77;26.38;;;0.20;99.90;;;;;;5028055;28;20113;-77
2022/03/07 04:13:13;;;;;;;28.17;25.83;;;0.20;99.90;;;;;;5032362;28;20056;-77
2022/03/07 04:15:40;;;;;;;28.95;26.08;;;0.20;99.90;;;;;;5013279;28;20046;-77
2022/03/07 04:18:07;;;;;;;28.48;25.65;;;0.30;99.90;;;;;;5016468;28;20050;-76
2022/03/07 04:20:34;;;;;;;28.70;26.35;;;0.30;99.90;;;;;;5019654;28;20041;-77
2022/03/07 04:23:01;;;;;;;29.50;26.92;;;0.30;99.90;;;;;;5016218;28;20050;-76
2022/03/07 04:25:29;;;;;;;28.45;25.90;;;0.20;99.90;;;;;;5037335;28;20636;-77
2022/03/07 04:27:55;;;;;;;29.10;26.50;;;0.30;99.90;;;;;;5050439;28;20083;-76
2022/03/07 04:30:22;;;;;;;30.38;27.73;;;0.20;99.90;;;;;;5040125;28;20111;-76
2022/03/07 04:32:49;;;;;;;29.48;27.02;;;0.20;99.90;;;;;;5014445;28;20053;-77
2022/03/07 04:35:16;;;;;;;29.83;27.25;;;0.20;99.90;;;;;;5031344;28;20116;-77
2022/03/07 04:37:43;;;;;;;28.25;26.05;;;0.30;99.90;;;;;;5014644;28;20049;-77
2022/03/07 04:40:12;;;;;;;28.88;26.35;;;0.30;99.90;;;;;;5032992;28;20080;-77
2022/03/07 04:42:41;;;;;;;27.98;25.75;;;0.30;99.90;;;;;;5001317;28;20092;-76
2022/03/07 04:45:08;;;;;;;28.83;26.55;;;0.40;99.90;;;;;;4994515;28;20046;-77
2022/03/07 04:47:35;;;;;;;29.40;26.70;;;0.40;99.90;;;;;;4995744;28;20037;-76
2022/03/07 04:50:03;;;;;;;28.58;26.30;;;0.40;99.90;;;;;;4990183;28;20046;-76
2022/03/07 04:52:29;;;;;;;27.85;25.63;;;0.50;99.90;;;;;;5011102;28;20045;-77
2022/03/07 04:54:56;;;;;;;27.02;24.83;;;0.40;99.90;;;;;;5012062;28;20054;-77
2022/03/07 04:57:23;;;;;;;26.95;24.70;;;0.40;99.90;;;;;;4999780;28;20107;-77
2022/03/07 04:59:50;;;;;;;28.23;25.60;;;0.60;99.90;;;;;;5011384;28;20147;-77
2022/03/07 05:02:16;;;;;;;26.95;24.50;;;0.60;99.90;;;;;;4993662;28;20617;-76
2022/03/07 05:04:43;;;;;;;28.02;25.70;;;0.50;99.90;;;;;;5011700;28;20060;-76
2022/03/07 05:07:10;;;;;;;28.02;25.77;;;0.40;99.90;;;;;;5027468;28;20045;-76
2022/03/07 05:09:37;;;;;;;28.42;25.85;;;0.20;99.90;;;;;;5064049;28;20094;-77
2022/03/07 05:12:04;;;;;;;28.25;26.00;;;0.20;99.90;;;;;;5045517;28;20056;-77
2022/03/07 05:14:30;;;;;;;28.50;26.23;;;0.30;99.90;;;;;;5026081;28;20068;-76
2022/03/07 05:16:57;;;;;;;27.85;25.58;;;0.40;99.90;;;;;;5034168;28;20127;-76
2022/03/07 05:19:24;;;;;;;28.70;26.42;;;0.50;99.90;;;;;;4995857;28;20153;-77
2022/03/07 05:21:50;;;;;;;29.38;26.50;;;0.50;99.90;;;;;;5018630;28;20108;-77
2022/03/07 05:24:17;;;;;;;28.05;25.70;;;0.50;99.90;;;;;;4996788;28;20050;-78
2022/03/07 05:26:44;;;;;;;28.88;26.55;;;0.50;99.90;;;;;;5010105;28;20508;-77
2022/03/07 05:29:11;;;;;;;28.00;25.80;;;0.50;99.90;;;;;;5031994;28;20057;-77
2022/03/07 05:31:37;;;;;;;28.40;26.20;;;0.60;99.90;;;;;;5013170;28;20046;-77
2022/03/07 05:34:04;;;;;;;27.90;25.80;;;0.50;99.90;;;;;;5032573;28;20366;-77
2022/03/07 05:36:31;;;;;;;28.05;25.80;;;0.50;99.90;;;;;;5033016;28;20115;-77
2022/03/07 05:38:58;;;;;;;27.52;25.42;;;0.60;99.90;;;;;;5031962;28;20046;-76
2022/03/07 05:41:24;;;;;;;28.38;25.90;;;0.60;99.90;;;;;;5029912;28;20072;-77
2022/03/07 05:43:51;;;;;;;27.95;25.52;;;0.50;99.90;;;;;;5029773;28;20314;-77
2022/03/07 05:46:18;;;;;;;27.38;24.98;;;0.40;99.90;;;;;;5035863;28;20456;-76
2022/03/07 05:48:45;;;;;;;25.83;23.70;;;0.40;99.90;;;;;;5013600;28;20077;-77
2022/03/07 05:51:12;;;;;;;26.55;24.55;;;0.30;99.90;;;;;;5021162;28;20042;-77
2022/03/07 05:53:39;;;;;;;26.50;24.42;;;0.50;99.90;;;;;;5052396;28;20084;-76
2022/03/07 05:56:06;;;;;;;28.17;25.60;;;0.50;99.90;;;;;;5051921;28;20075;-76
2022/03/07 05:58:32;;;;;;;27.13;25.10;;;0.40;99.90;;;;;;5023133;28;20041;-76
2022/03/07 06:00:59;;;;;;;27.90;25.70;;;0.50;99.90;;;;;;5029807;28;20061;-76
2022/03/07 06:03:26;;;;;;;34.80;32.28;;;0.50;99.90;;;;;;5030670;28;20053;-76
2022/03/07 06:05:53;;;;;;;28.63;26.17;;;0.40;99.90;;;;;;5007688;28;20050;-77
2022/03/07 06:08:19;;;;;;;31.10;28.05;;;0.40;99.90;;;;;;5028862;28;20042;-76
2022/03/07 06:10:46;;;;;;;28.95;26.42;;;0.40;99.90;;;;;;4998524;28;20048;-77
2022/03/07 06:13:13;;;;;;;29.05;26.80;;;0.20;99.90;;;;;;5015219;28;20061;-76
2022/03/07 06:15:43;;;;;;;34.70;32.05;;;0.10;99.90;;;;;;5051505;28;20060;-75
2022/03/07 06:18:11;;;;;;;33.65;31.13;;;0.10;99.90;;;;;;5035401;28;20066;-77
2022/03/07 06:20:38;;;;;;;37.22;34.05;;;0.10;99.90;;;;;;5032619;28;20084;-77
2022/03/07 06:23:05;;;;;;;35.58;32.80;;;0.00;99.90;;;;;;5030306;28;20087;-76
2022/03/07 06:25:33;;;;;;;35.03;32.40;;;-0.10;99.90;;;;;;5029357;28;20600;-77
2022/03/07 06:28:01;;;;;;;36.28;33.10;;;0.10;99.90;;;;;;5022867;28;20448;-76
2022/03/07 06:30:28;;;;;;;35.55;32.65;;;0.00;99.90;;;;;;5026270;28;20037;-76
2022/03/07 06:32:55;;;;;;;34.85;32.00;;;0.00;99.90;;;;;;5025771;28;20037;-77
2022/03/07 06:35:22;;;;;;;35.28;32.30;;;-0.10;99.90;;;;;;5033948;28;20139;-77
2022/03/07 06:37:51;;;;;;;34.40;31.65;;;-0.20;99.90;;;;;;5043040;28;20066;-78
2022/03/07 06:40:20;;;;;;;34.65;31.75;;;-0.30;99.90;;;;;;5010346;28;20433;-77
2022/03/07 06:42:47;;;;;;;34.53;31.88;;;-0.20;99.90;;;;;;5011476;28;20054;-77
2022/03/07 06:45:16;;;;;;;33.65;30.85;;;-0.20;99.90;;;;;;5011452;28;20053;-77
2022/03/07 06:47:44;;;;;;;34.60;31.60;;;-0.30;99.90;;;;;;5011468;28;20041;-77
2022/03/07 06:50:12;;;;;;;35.40;32.50;;;-0.20;99.90;;;;;;5009871;28;20457;-77
2022/03/07 06:52:39;;;;;;;34.83;32.05;;;-0.20;99.90;;;;;;5025798;28;20053;-77
2022/03/07 06:55:06;;;;;;;36.78;33.67;;;-0.20;99.90;;;;;;5006008;28;20054;-77
2022/03/07 06:57:33;;;;;;;36.65;33.22;;;-0.10;99.90;;;;;;5011861;28;20104;-76
2022/03/07 07:00:00;;;;;;;32.92;30.13;;;-0.30;99.90;;;;;;5026555;28;20155;-77
2022/03/07 07:02:26;;;;;;;33.78;30.90;;;-0.40;99.90;;;;;;5035436;28;20103;-77
2022/03/07 07:04:54;;;;;;;34.40;31.52;;;-0.50;99.90;;;;;;5010023;28;20142;-77
2022/03/07 07:07:20;;;;;;;34.45;31.75;;;-0.50;99.90;;;;;;5007905;28;20551;-77
2022/03/07 07:09:47;;;;;;;34.35;31.45;;;-0.50;99.90;;;;;;5050645;23;20891;-71
2022/03/07 07:12:14;;;;;;;33.25;30.27;;;-0.40;99.90;;;;;;5052476;28;20046;-72
2022/03/07 07:14:41;;;;;;;33.55;31.08;;;-0.30;99.90;;;;;;5054703;28;20052;-71
2022/03/07 07:17:08;;;;;;;38.15;34.65;;;-0.30;99.90;;;;;;5011525;28;20048;-71
2022/03/07 07:19:35;;;;;;;38.47;35.70;;;-0.40;99.90;;;;;;5011762;28;20458;-71
2022/03/07 07:22:02;;;;;;;39.30;36.00;;;-0.40;99.90;;;;;;5014226;28;20052;-73
2022/03/07 07:24:29;;;;;;;39.85;36.75;;;-0.30;99.90;;;;;;4982885;28;20060;-71
2022/03/07 07:26:56;;;;;;;38.28;35.30;;;-0.20;99.90;;;;;;4997561;28;20041;-72
2022/03/07 07:29:23;;;;;;;37.40;34.13;;;-0.30;99.90;;;;;;5016059;28;20041;-75
2022/03/07 07:31:51;;;;;;;36.00;32.88;;;-0.20;99.90;;;;;;5030933;28;20075;-74
2022/03/07 07:34:19;;;;;;;36.95;33.97;;;0.10;99.90;;;;;;5001595;28;20106;-73
2022/03/07 07:36:47;;;;;;;34.30;31.58;;;0.20;99.90;;;;;;5016304;28;20049;-72
2022/03/07 07:39:15;;;;;;;35.05;32.25;;;0.30;99.90;;;;;;4996697;28;20061;-69
2022/03/07 07:41:42;;;;;;;34.40;32.10;;;0.40;99.90;;;;;;5033518;28;20105;-73
2022/03/07 07:44:08;;;;;;;34.92;32.45;;;0.40;99.90;;;;;;4997753;28;20053;-70
2022/03/07 07:46:35;;;;;;;32.67;30.65;;;0.50;99.90;;;;;;5034261;28;20040;-72
2022/03/07 07:49:03;;;;;;;31.83;29.95;;;0.60;99.90;;;;;;5013356;28;20111;-71
2022/03/07 07:51:30;;;;;;;31.52;29.63;;;0.90;99.90;;;;;;5009995;28;20063;-71
2022/03/07 07:53:57;;;;;;;31.02;29.02;;;1.00;99.90;;;;;;5034849;28;20055;-72
2022/03/07 07:56:24;;;;;;;31.30;29.23;;;1.20;99.90;;;;;;5013329;28;20431;-72
2022/03/07 07:58:50;;;;;;;32.10;29.95;;;1.30;99.90;;;;;;4999365;28;20052;-73
2022/03/07 08:01:17;;;;;;;29.75;28.05;;;1.40;99.90;;;;;;5028785;28;20118;-75
2022/03/07 08:03:45;;;;;;;30.38;28.58;;;1.50;99.90;;;;;;5033275;28;20122;-70
2022/03/07 08:06:12;;;;;;;31.15;29.30;;;1.50;99.90;;;;;;4999967;28;20037;-72
2022/03/07 08:08:39;;;;;;;31.65;29.58;;;1.60;99.90;;;;;;5034457;28;20599;-70
2022/03/07 08:11:05;;;;;;;31.88;29.88;;;1.80;99.90;;;;;;5031814;28;20098;-71
2022/03/07 08:13:33;;;;;;;32.42;30.38;;;1.90;99.90;;;;;;5015303;28;20056;-71
2022/03/07 08:15:59;;;;;;;32.08;30.08;;;2.00;99.90;;;;;;5030709;28;20748;-71
2022/03/07 08:18:26;;;;;;;33.33;31.40;;;2.10;99.90;;;;;;5029932;28;20056;-73
2022/03/07 08:20:56;;;;;;;31.45;29.75;;;2.20;99.90;;;;;;4991652;28;20103;-72
2022/03/07 08:23:23;;;;;;;30.02;28.35;;;2.20;99.90;;;;;;5003826;28;20046;-75
2022/03/07 08:25:50;;;;;;;31.13;29.33;;;2.50;99.90;;;;;;4997802;28;20038;-75
2022/03/07 08:28:16;;;;;;;32.20;30.33;;;2.70;99.90;;;;;;5015011;28;20036;-75
2022/03/07 08:30:43;;;;;;;33.55;31.27;;;2.90;99.90;;;;;;5001361;28;20049;-74
2022/03/07 08:33:11;;;;;;;31.13;29.30;;;3.10;99.90;;;;;;5013192;28;20141;-72
2022/03/07 08:35:38;;;;;;;32.00;29.90;;;3.00;99.90;;;;;;5016257;28;20574;-71
2022/03/07 08:38:05;;;;;;;29.25;27.63;;;3.40;99.90;;;;;;5015130;28;20098;-70
2022/03/07 08:40:32;;;;;;;30.55;28.75;;;3.30;99.90;;;;;;5032036;28;20059;-71
2022/03/07 08:42:59;;;;;;;29.98;28.30;;;3.30;99.90;;;;;;5014181;28;20148;-73
2022/03/07 08:45:26;;;;;;;30.98;29.08;;;3.50;99.90;;;;;;5015218;28;20148;-73
2022/03/07 08:48:13;;;;;;;32.63;30.75;;;3.70;99.90;;;;;;5012016;28;20588;-72
2022/03/07 08:50:40;;;;;;;31.00;29.17;;;3.70;99.90;;;;;;5013896;28;20056;-73
2022/03/07 08:53:06;;;;;;;29.80;27.88;;;3.70;99.90;;;;;;4998368;28;20052;-72
2022/03/07 08:55:33;;;;;;;32.47;30.75;;;3.90;99.90;;;;;;5013690;28;20144;-72
2022/03/07 08:58:01;;;;;;;31.25;29.52;;;3.50;99.90;;;;;;5032934;28;20102;-72
2022/03/07 09:00:27;;;;;;;32.45;30.65;;;3.30;99.90;;;;;;5012011;28;20068;-73
2022/03/07 09:02:54;;;;;;;31.15;29.30;;;3.20;99.90;;;;;;5009095;28;20271;-74
2022/03/07 09:05:21;;;;;;;33.17;31.33;;;3.50;99.90;;;;;;4994643;28;20077;-74
2022/03/07 09:07:48;;;;;;;32.72;30.50;;;4.00;99.90;;;;;;5014095;28;20476;-73
2022/03/07 09:10:15;;;;;;;31.40;29.48;;;4.20;99.90;;;;;;4995192;28;20056;-72
2022/03/07 09:12:42;;;;;;;32.85;30.60;;;4.20;99.90;;;;;;5016868;28;20052;-73
2022/03/07 09:15:09;;;;;;;33.83;31.80;;;4.20;99.90;;;;;;4999661;28;20041;-75
2022/03/07 09:17:36;;;;;;;34.03;31.85;;;4.30;99.90;;;;;;5013190;28;20438;-74
2022/03/07 09:20:05;;;;;;;33.13;31.30;;;4.70;99.90;;;;;;4987867;28;20053;-74
2022/03/07 09:22:32;;;;;;;33.97;31.80;;;4.70;99.90;;;;;;4999263;28;20080;-73
2022/03/07 09:24:59;;;;;;;35.33;33.22;;;4.30;99.90;;;;;;5008335;28;20059;-72
2022/03/07 09:27:26;;;;;;;34.60;32.55;;;4.10;99.90;;;;;;5013895;28;20041;-72
2022/03/07 09:29:52;;;;;;;34.40;32.35;;;3.90;99.90;;;;;;5010899;28;20560;-74
2022/03/07 09:32:19;;;;;;;34.67;32.58;;;4.10;99.90;;;;;;4999782;28;20037;-73
2022/03/07 09:34:46;;;;;;;34.45;32.55;;;4.20;99.90;;;;;;5030417;28;20568;-74
2022/03/07 09:37:13;;;;;;;34.58;32.65;;;4.10;99.90;;;;;;5028935;28;20597;-74
2022/03/07 09:39:40;;;;;;;35.35;33.05;;;4.10;99.90;;;;;;5012639;28;20423;-73
2022/03/07 09:42:07;;;;;;;35.10;33.13;;;4.30;99.90;;;;;;5028632;28;20056;-74
2022/03/07 09:44:34;;;;;;;36.92;34.78;;;4.30;99.90;;;;;;5010140;28;20485;-72
2022/03/07 09:47:03;;;;;;;36.63;34.58;;;4.60;99.90;;;;;;5007751;28;20574;-75
2022/03/07 09:49:31;;;;;;;38.10;35.70;;;4.50;99.90;;;;;;5006726;28;20052;-75
2022/03/07 09:51:59;;;;;;;35.55;33.50;;;4.50;99.90;;;;;;4990725;28;20059;-74
2022/03/07 09:54:26;;;;;;;36.15;33.92;;;4.80;99.90;;;;;;5013837;28;20456;-74
2022/03/07 09:56:54;;;;;;;35.90;33.72;;;5.20;99.90;;;;;;5008186;28;20272;-73
2022/03/07 09:59:21;;;;;;;37.35;34.90;;;5.40;99.90;;;;;;5007203;28;20420;-74
2022/03/07 10:02:00;;;;;;;37.08;34.60;;;5.60;99.90;;;;;;4994943;28;20144;-76
2022/03/07 10:04:30;;;;;;;35.58;33.55;;;5.10;99.90;;;;;;5013885;28;20045;-74
2022/03/07 10:07:00;;;;;;;35.90;33.65;;;5.40;99.90;;;;;;5015149;28;20079;-76
2022/03/07 10:09:27;;;;;;;36.03;33.83;;;5.30;99.90;;;;;;5002076;28;20342;-74
2022/03/07 10:11:56;;;;;;;36.40;33.97;;;5.40;99.90;;;;;;5033734;28;20045;-76
2022/03/07 10:14:46;;;;;;;35.72;33.63;;;5.50;99.90;;;;;;5031674;28;20053;-73
2022/03/07 10:17:31;;;;;;;33.40;31.02;;;5.90;99.90;;;;;;5012066;28;20482;-73
2022/03/07 10:20:04;;;;;;;35.70;33.80;;;5.90;99.90;;;;;;5008610;28;20056;-73
2022/03/07 10:22:45;;;;;;;35.42;33.20;;;5.90;99.90;;;;;;5012331;28;20057;-75
2022/03/07 10:25:12;;;;;;;35.22;33.13;;;5.80;99.90;;;;;;4994477;28;20118;-76
2022/03/07 10:27:49;;;;;;;37.88;35.40;;;5.60;99.90;;;;;;5029149;28;20072;-75
2022/03/07 10:30:20;;;;;;;34.78;32.65;;;5.30;99.90;;;;;;5020347;28;20057;-73
2022/03/07 10:33:03;;;;;;;33.80;31.88;;;5.20;99.90;;;;;;4996167;28;20049;-74
2022/03/07 10:35:36;;;;;;;33.42;31.58;;;5.20;99.90;;;;;;5013205;28;21165;-77
2022/03/07 10:38:05;;;;;;;35.25;33.13;;;5.10;99.90;;;;;;4987813;28;20220;-73
2022/03/07 10:40:35;;;;;;;34.22;32.30;;;5.10;99.90;;;;;;5017198;28;20041;-73
2022/03/07 10:43:04;;;;;;;35.42;33.22;;;5.10;99.90;;;;;;5036820;28;20292;-73
2022/03/07 10:45:32;;;;;;;28.95;27.25;;;5.40;99.90;;;;;;5033449;28;20579;-77
2022/03/07 10:48:04;;;;;;;30.33;27.83;;;5.80;99.90;;;;;;5006107;28;20138;-74
2022/03/07 10:50:31;;;;;;;28.63;26.73;;;5.80;99.90;;;;;;5010028;28;20250;-74
2022/03/07 10:53:06;;;;;;;28.17;26.33;;;5.50;99.90;;;;;;5008482;28;20435;-73
2022/03/07 10:55:34;;;;;;;29.25;27.45;;;5.60;99.90;;;;;;5013193;28;20053;-74
2022/03/07 10:58:13;;;;;;;28.95;26.95;;;5.90;99.90;;;;;;5012877;28;20287;-72
2022/03/07 11:00:54;;;;;;;28.00;26.10;;;6.10;99.90;;;;;;5017117;28;20049;-72
2022/03/07 11:03:33;;;;;;;29.83;28.02;;;6.10;99.90;;;;;;5002496;28;20068;-72
2022/03/07 11:06:01;;;;;;;30.95;28.67;;;6.20;99.90;;;;;;5013705;28;20098;-73
2022/03/07 11:08:29;;;;;;;30.25;28.25;;;5.60;99.90;;;;;;4994425;28;20056;-73
2022/03/07 11:10:58;;;;;;;28.55;26.75;;;5.60;99.90;;;;;;5009465;28;20374;-73
2022/03/07 11:13:29;;;;;;;28.13;26.35;;;5.60;99.90;;;;;;4992597;28;20458;-73
2022/03/07 11:16:00;;;;;;;29.98;28.00;;;5.50;99.90;;;;;;5030256;28;20099;-72
2022/03/07 11:18:29;;;;;;;28.50;26.55;;;5.40;99.90;;;;;;5026743;28;20041;-74
2022/03/07 11:20:56;;;;;;;29.17;27.27;;;5.40;99.90;;;;;;5028500;28;20728;-73
2022/03/07 11:23:24;;;;;;;30.02;28.20;;;5.50;99.90;;;;;;5032120;28;20106;-72
2022/03/07 11:25:54;;;;;;;29.40;27.60;;;5.20;99.90;;;;;;4997283;28;20521;-71
2022/03/07 11:28:25;;;;;;;28.33;26.42;;;5.60;99.90;;;;;;4995772;28;20048;-73
2022/03/07 11:30:52;;;;;;;29.08;27.17;;;5.50;99.90;;;;;;5028449;28;20530;-73
2022/03/07 11:33:25;;;;;;;30.92;28.48;;;5.70;99.90;;;;;;4995953;28;20124;-73
2022/03/07 11:35:53;;;;;;;28.52;26.25;;;5.90;99.90;;;;;;5031085;28;20041;-74
2022/03/07 11:38:24;;;;;;;29.65;27.65;;;6.00;99.90;;;;;;5012262;28;20048;-72
2022/03/07 11:41:22;;;;;;;34.20;32.42;;;6.00;99.90;;;;;;5011435;28;20106;-74
2022/03/07 11:43:56;;;;;;;36.80;34.40;;;5.90;99.90;;;;;;5027969;28;20049;-74
2022/03/07 11:46:38;;;;;;;36.22;34.00;;;5.40;99.90;;;;;;5013019;28;20072;-74
2022/03/07 11:49:08;;;;;;;35.45;33.50;;;5.50;99.90;;;;;;4993618;28;20167;-73
2022/03/07 11:51:38;;;;;;;37.85;35.67;;;5.50;99.90;;;;;;5007567;28;20964;-74
2022/03/07 11:54:17;;;;;;;37.17;35.08;;;5.40;99.90;;;;;;5013764;28;20256;-74
2022/03/07 11:56:44;;;;;;;37.03;34.60;;;5.60;99.90;;;;;;5029224;28;20176;-73
2022/03/07 11:59:11;;;;;;;37.25;35.25;;;6.00;99.90;;;;;;5010418;28;20045;-72
2022/03/07 12:01:38;;;;;;;37.70;35.40;;;6.20;99.90;;;;;;5024067;28;20041;-72
2022/03/07 12:04:15;;;;;;;36.15;34.15;;;5.80;99.90;;;;;;4991885;28;20119;-74
2022/03/07 12:06:46;;;;;;;35.60;33.30;;;5.80;99.90;;;;;;4991354;28;20531;-74
2022/03/07 12:09:33;;;;;;;37.28;35.15;;;5.90;99.90;;;;;;5005581;28;20207;-75
2022/03/07 12:12:02;;;;;;;35.00;32.83;;;5.50;99.90;;;;;;5008330;28;20076;-72
2022/03/07 12:14:34;;;;;;;36.40;34.17;;;5.60;99.90;;;;;;5046273;28;20060;-72
2022/03/07 12:17:13;;;;;;;36.58;34.20;;;5.90;99.90;;;;;;5021048;28;20144;-75
2022/03/07 12:19:41;;;;;;;36.50;34.40;;;6.30;99.90;;;;;;5008812;28;20228;-73
2022/03/07 12:22:14;;;;;;;35.08;33.20;;;6.50;99.90;;;;;;5010132;28;20118;-74
2022/03/07 12:24:42;;;;;;;35.92;34.03;;;6.20;99.90;;;;;;5013279;28;20049;-73
2022/03/07 12:27:10;;;;;;;36.63;34.53;;;6.10;99.90;;;;;;4998176;28;20041;-74
2022/03/07 12:29:43;;;;;;;36.95;34.80;;;6.00;99.90;;;;;;5014067;28;20037;-74
2022/03/07 12:32:10;;;;;;;35.63;33.53;;;6.20;99.90;;;;;;5011513;28;20052;-75
2022/03/07 12:34:40;;;;;;;35.95;33.85;;;6.30;99.90;;;;;;4995109;28;20111;-73
2022/03/07 12:37:15;;;;;;;37.15;35.05;;;6.20;99.90;;;;;;4983632;28;20045;-74
2022/03/07 12:39:44;;;;;;;;;;;6.00;99.90;;;;;;4992901;28;20075;-72
2022/03/07 12:42:11;;;;;;;37.35;34.78;;;6.10;99.90;;;;;;5010420;28;19959;-73